Time;durP1;ratioP1;P1;durP2;ratioP2;P2;SDS_P1;SDS_P2;PMS_P1;PMS_P2;Temp;Humidity;BMP_temperature;BMP_pressure;BME280_temperature;BME280_humidity;BME280_pressure;Samples;Min_cycle;Max_cycle;Signal;HPM_P1;HPM_P2
2024/02/13 00:01:48;;;;;;;;;;;;;;;18.12;66.86;99822.59;7388533;19;1853;-35
2024/02/13 00:04:16;;;;;;;;;;;;;;;18.06;66.95;99823.22;7391404;19;1210;-36
2024/02/13 00:06:47;;;;;;;;;;;;;;;18.02;67.02;99820.00;7389725;19;1201;-35
2024/02/13 00:09:16;;;;;;;;;;;;;;;18.05;66.96;99821.56;7384640;19;1744;-35
2024/02/13 00:11:46;;;;;;;;;;;;;;;18.05;66.81;99835.75;7392493;19;1406;-36
2024/02/13 00:14:15;;;;;;;;;;;;;;;18.11;66.85;99828.13;7391555;19;1529;-35
2024/02/13 00:16:44;;;;;;;;;;;;;;;18.06;66.81;99837.47;7390099;19;1514;-35
2024/02/13 00:19:12;;;;;;;;;;;;;;;18.06;66.67;99812.53;7387661;19;1430;-35
2024/02/13 00:21:40;;;;;;;;;;;;;;;18.10;66.97;99837.97;7389376;19;2287;-35
2024/02/13 00:24:13;;;;;;;;;;;;;;;18.04;66.83;99841.25;7391578;19;1126;-33
2024/02/13 00:26:43;;;;;;;;;;;;;;;17.96;66.96;99827.81;7388948;19;1592;-36
2024/02/13 00:29:12;;;;;;;;;;;;;;;17.96;67.24;99834.00;7392168;19;1521;-40
2024/02/13 00:31:42;;;;;;;;;;;;;;;18.01;66.81;99839.75;7391737;19;1589;-40
2024/02/13 00:34:11;;;;;;;;;;;;;;;17.96;66.97;99841.19;7390528;19;1747;-40
2024/02/13 00:36:39;;;;;;;;;;;;;;;17.98;66.97;99842.69;7390420;19;1482;-40
2024/02/13 00:39:07;;;;;;;;;;;;;;;18.08;66.47;99837.28;7389744;19;1740;-40
2024/02/13 00:41:38;;;;;;;;;;;;;;;18.03;66.60;99839.59;7391119;19;1845;-40
2024/02/13 00:44:07;;;;;;;;;;;;;;;18.00;66.67;99834.53;7390816;19;1819;-44
2024/02/13 00:46:35;;;;;;;;;;;;;;;17.95;66.69;99836.84;7377259;19;1678;-41
2024/02/13 00:49:04;;;;;;;;;;;;;;;17.97;66.85;99829.50;7391615;19;1607;-41
2024/02/13 00:51:32;;;;;;;;;;;;;;;17.94;66.78;99827.13;7391559;19;1573;-40
2024/02/13 00:54:01;;;;;;;;;;;;;;;17.92;66.65;99834.44;7389850;19;1524;-35
2024/02/13 00:56:29;;;;;;;;;;;;;;;17.99;66.51;99832.88;7388907;19;1482;-34
2024/02/13 00:59:07;;;;;;;;;;;;;;;17.94;66.70;99835.13;7391920;19;1596;-35
2024/02/13 01:01:36;;;;;;;;;;;;;;;17.95;66.71;99835.00;7390254;19;1858;-35
2024/02/13 01:04:06;;;;;;;;;;;;;;;18.02;66.38;99811.16;7390768;19;1560;-35
2024/02/13 01:06:35;;;;;;;;;;;;;;;18.02;66.32;99837.91;7390442;19;1564;-34
2024/02/13 01:09:05;;;;;;;;;;;;;;;18.03;66.31;99826.22;7390692;19;1394;-35
2024/02/13 01:11:33;;;;;;;;;;;;;;;18.06;66.28;99836.59;7391382;19;1072;-35
2024/02/13 01:14:02;;;;;;;;;;;;;;;18.10;66.16;99840.66;7389669;19;1863;-35
2024/02/13 01:16:33;;;;;;;;;;;;;;;18.02;66.22;99824.53;7390011;19;1650;-35
2024/02/13 01:19:03;;;;;;;;;;;;;;;18.04;66.14;99842.09;7388451;19;1490;-34
2024/02/13 01:21:31;;;;;;;;;;;;;;;18.02;66.11;99829.88;7390099;19;1842;-36
2024/02/13 01:24:00;;;;;;;;;;;;;;;18.03;66.14;99847.63;7389332;19;1471;-34
2024/02/13 01:26:28;;;;;;;;;;;;;;;17.99;66.20;99831.03;7388492;19;1563;-35
2024/02/13 01:28:56;;;;;;;;;;;;;;;17.88;66.28;99841.94;7388864;19;1270;-35
2024/02/13 01:31:25;;;;;;;;;;;;;;;17.93;66.31;99842.34;7389399;19;1724;-34
2024/02/13 01:33:56;;;;;;;;;;;;;;;18.00;66.20;99837.22;7387127;19;1409;-35
2024/02/13 01:36:24;;;;;;;;;;;;;;;18.00;66.26;99845.22;7388648;19;1363;-35
2024/02/13 01:38:53;;;;;;;;;;;;;;;18.03;66.03;99848.44;7387973;19;1211;-35
2024/02/13 01:41:21;;;;;;;;;;;;;;;18.03;65.96;99848.44;7388484;19;1858;-34
2024/02/13 01:43:50;;;;;;;;;;;;;;;18.02;65.86;99845.91;7388009;19;1429;-35
2024/02/13 01:46:19;;;;;;;;;;;;;;;17.98;66.25;99844.53;7373989;19;1555;-34
2024/02/13 01:48:48;;;;;;;;;;;;;;;17.91;66.15;99838.13;7388089;19;1504;-36
2024/02/13 01:51:19;;;;;;;;;;;;;;;17.94;66.08;99844.00;7389020;19;1801;-34
2024/02/13 01:53:47;;;;;;;;;;;;;;;17.97;66.33;99874.97;7388765;19;1481;-34
2024/02/13 01:56:20;;;;;;;;;;;;;;;17.94;66.11;99843.16;7386864;19;1473;-34
2024/02/13 01:58:50;;;;;;;;;;;;;;;18.00;66.12;99829.19;7388708;19;1466;-38
2024/02/13 02:01:18;;;;;;;;;;;;;;;17.97;66.14;99824.97;7387871;19;1856;-41
2024/02/13 02:03:48;;;;;;;;;;;;;;;17.98;66.04;99831.16;7389994;19;1543;-34
2024/02/13 02:06:19;;;;;;;;;;;;;;;17.97;66.12;99829.50;7388682;19;1408;-35
2024/02/13 02:08:48;;;;;;;;;;;;;;;17.97;66.05;99830.34;7389383;19;1383;-36
2024/02/13 02:11:16;;;;;;;;;;;;;;;17.89;66.36;99832.94;7389367;19;1889;-34
2024/02/13 02:13:45;;;;;;;;;;;;;;;17.93;66.11;99830.81;7387598;19;1415;-35
2024/02/13 02:16:13;;;;;;;;;;;;;;;17.80;66.23;99821.25;7389211;19;1264;-36
2024/02/13 02:18:42;;;;;;;;;;;;;;;17.80;66.57;99823.94;7388625;19;1486;-40
2024/02/13 02:21:11;;;;;;;;;;;;;;;18.04;66.28;99828.72;7388528;19;1501;-35
2024/02/13 02:23:42;;;;;;;;;;;;;;;18.36;65.34;99830.00;7386453;19;1849;-34
2024/02/13 02:26:13;;;;;;;;;;;;;;;18.55;64.75;99834.38;7387756;19;1399;-35
2024/02/13 02:28:43;;;;;;;;;;;;;;;18.45;64.91;99828.25;7386883;19;1325;-34
2024/02/13 02:31:12;;;;;;;;;;;;;;;18.28;65.43;99819.25;7385228;19;1483;-35
2024/02/13 02:33:42;;;;;;;;;;;;;;;18.19;65.70;99842.41;7387061;19;1519;-36
2024/02/13 02:36:10;;;;;;;;;;;;;;;18.08;65.84;99834.63;7385908;19;1264;-35
2024/02/13 02:38:40;;;;;;;;;;;;;;;18.04;65.97;99818.00;7385627;19;1497;-34
2024/02/13 02:41:09;;;;;;;;;;;;;;;18.14;65.90;99855.41;7386981;19;1362;-35
2024/02/13 02:43:41;;;;;;;;;;;;;;;18.08;65.97;99842.63;7384756;19;1903;-35
2024/02/13 02:46:09;;;;;;;;;;;;;;;18.04;65.91;99833.22;7370584;19;1591;-34
2024/02/13 02:48:37;;;;;;;;;;;;;;;18.04;65.98;99842.09;7386093;19;1458;-34
2024/02/13 02:51:06;;;;;;;;;;;;;;;18.03;66.33;99848.44;7385675;19;1141;-35
2024/02/13 02:53:34;;;;;;;;;;;;;;;18.02;66.15;99838.72;7387247;19;1300;-34
2024/02/13 02:56:03;;;;;;;;;;;;;;;18.00;66.04;99859.44;7384533;19;1521;-35
2024/02/13 02:58:31;;;;;;;;;;;;;;;18.01;66.05;99847.75;7386922;19;1513;-34
2024/02/13 03:01:03;;;;;;;;;;;;;;;18.03;66.09;99874.38;7386136;19;1469;-34
2024/02/13 03:03:31;;;;;;;;;;;;;;;17.97;66.27;99883.00;7386284;19;1856;-34
2024/02/13 03:05:59;;;;;;;;;;;;;;;17.98;66.07;99871.28;7386926;19;1369;-35
2024/02/13 03:08:28;;;;;;;;;;;;;;;17.94;66.24;99875.25;7386208;19;1162;-35
2024/02/13 03:10:56;;;;;;;;;;;;;;;17.98;66.03;99888.19;7386128;19;1933;-35
2024/02/13 03:13:25;;;;;;;;;;;;;;;18.00;66.19;99886.19;7385681;19;1231;-34
2024/02/13 03:15:53;;;;;;;;;;;;;;;17.94;66.32;99885.97;7386870;19;1329;-34
2024/02/13 03:18:24;;;;;;;;;;;;;;;18.01;65.98;99893.25;7385488;19;1493;-35
2024/02/13 03:20:53;;;;;;;;;;;;;;;17.96;66.06;99889.31;7385938;19;1874;-39
2024/02/13 03:23:21;;;;;;;;;;;;;;;17.94;66.14;99884.13;7384521;19;1961;-35
2024/02/13 03:25:49;;;;;;;;;;;;;;;17.96;66.00;99882.13;7385634;19;1477;-34
2024/02/13 03:28:18;;;;;;;;;;;;;;;17.97;66.04;99872.31;7384578;19;1538;-35
2024/02/13 03:30:47;;;;;;;;;;;;;;;17.85;66.18;99867.16;7385422;19;1556;-34
2024/02/13 03:33:15;;;;;;;;;;;;;;;17.83;66.49;99869.13;7385023;19;1481;-34
2024/02/13 03:35:46;;;;;;;;;;;;;;;17.87;66.52;99862.50;7385040;19;1377;-35
2024/02/13 03:38:15;;;;;;;;;;;;;;;17.87;66.43;99870.53;7382890;19;1668;-34
2024/02/13 03:40:43;;;;;;;;;;;;;;;17.96;66.14;99882.13;7386644;19;1596;-34
2024/02/13 03:43:12;;;;;;;;;;;;;;;17.89;66.21;99879.22;7389431;19;2242;-34
2024/02/13 03:45:40;;;;;;;;;;;;;;;17.91;66.20;99892.47;7393180;19;1504;-35
2024/02/13 03:48:09;;;;;;;;;;;;;;;17.94;66.26;99885.97;7376853;19;1752;-36
2024/02/13 03:50:37;;;;;;;;;;;;;;;17.91;66.24;99887.13;7393251;19;1224;-35
2024/02/13 03:53:08;;;;;;;;;;;;;;;17.93;66.19;99884.28;7394082;19;1382;-35
2024/02/13 03:55:37;;;;;;;;;;;;;;;17.84;66.20;99880.66;7394057;19;1570;-35
2024/02/13 03:58:05;;;;;;;;;;;;;;;17.87;66.44;99901.78;7393804;19;1499;-36
2024/02/13 04:00:34;;;;;;;;;;;;;;;17.88;66.32;99890.91;7392647;19;1580;-35
2024/02/13 04:03:03;;;;;;;;;;;;;;;17.92;66.23;99898.66;7391981;19;1936;-34
2024/02/13 04:05:36;;;;;;;;;;;;;;;18.45;65.06;99889.84;7392063;19;1216;-35
2024/02/13 04:08:06;;;;;;;;;;;;;;;18.51;64.67;99889.22;7392232;19;1473;-35
2024/02/13 04:10:37;;;;;;;;;;;;;;;18.51;64.61;99905.28;7392251;19;1519;-34
2024/02/13 04:13:06;;;;;;;;;;;;;;;18.35;65.12;99897.09;7392957;19;1692;-35
2024/02/13 04:15:35;;;;;;;;;;;;;;;18.28;65.26;99902.22;7392608;19;1539;-34
2024/02/13 04:18:04;;;;;;;;;;;;;;;18.18;65.41;99915.66;7391091;19;1486;-34
2024/02/13 04:20:32;;;;;;;;;;;;;;;18.53;64.68;99921.19;7392207;19;1798;-36
2024/02/13 04:23:03;;;;;;;;;;;;;;;18.74;63.97;99926.22;7390394;19;1859;-35
2024/02/13 04:25:32;;;;;;;;;;;;;;;18.67;64.12;99921.50;7388653;19;1489;-34
2024/02/13 04:28:03;;;;;;;;;;;;;;;18.81;63.96;99921.97;7390632;19;1366;-36
2024/02/13 04:30:31;;;;;;;;;;;;;;;18.51;64.65;99910.63;7390628;19;1501;-34
2024/02/13 04:33:00;;;;;;;;;;;;;;;18.43;64.83;99921.28;7391960;19;1381;-36
2024/02/13 04:35:28;;;;;;;;;;;;;;;18.30;65.05;99918.94;7391823;19;1385;-35
2024/02/13 04:37:56;;;;;;;;;;;;;;;18.46;64.54;99919.16;7391178;19;1446;-35
2024/02/13 04:40:24;;;;;;;;;;;;;;;18.82;63.89;99924.50;7391231;19;1394;-35
2024/02/13 04:42:53;;;;;;;;;;;;;;;18.95;63.59;99908.03;7390291;19;1843;-36
2024/02/13 04:45:25;;;;;;;;;;;;;;;18.78;63.70;99917.75;7391050;19;1465;-36
2024/02/13 04:47:53;;;;;;;;;;;;;;;18.61;64.32;99927.47;7376120;19;1510;-35
2024/02/13 04:50:23;;;;;;;;;;;;;;;18.45;64.55;99927.31;7391174;19;1465;-36
2024/02/13 04:52:51;;;;;;;;;;;;;;;18.35;65.00;99916.69;7390075;19;1101;-34
2024/02/13 04:55:19;;;;;;;;;;;;;;;18.63;64.20;99925.47;7388960;19;1746;-36
2024/02/13 04:57:48;;;;;;;;;;;;;;;18.80;63.87;99925.63;7390524;19;1469;-39
2024/02/13 05:00:24;;;;;;;;;;;;;;;18.88;63.67;99933.78;7390200;19;1501;-34
2024/02/13 05:03:03;;;;;;;;;;;;;;;18.92;63.50;99932.47;7390244;19;1850;-35
2024/02/13 05:08:13;;;;;;;;;;;;;;;19.02;63.27;99935.88;7389430;19;1565;-36
2024/02/13 05:10:41;;;;;;;;;;;;;;;19.03;63.22;99947.44;7387485;19;1383;-36
2024/02/13 05:13:09;;;;;;;;;;;;;;;19.03;63.19;99947.44;7389419;19;1204;-35
2024/02/13 05:15:38;;;;;;;;;;;;;;;19.00;63.18;99945.06;7390290;19;1229;-35
2024/02/13 05:18:09;;;;;;;;;;;;;;;19.02;63.16;99932.34;7386984;19;1241;-38
2024/02/13 05:20:38;;;;;;;;;;;;;;;19.04;63.17;99933.88;7388930;19;1541;-35
2024/02/13 05:23:10;;;;;;;;;;;;;;;19.22;62.92;99946.41;7388663;19;1845;-35
2024/02/13 05:25:39;;;;;;;;;;;;;;;19.25;62.88;99935.38;7388724;19;1495;-36
2024/02/13 05:28:09;;;;;;;;;;;;;;;19.24;62.76;99944.41;7388025;19;1629;-34
2024/02/13 05:30:37;;;;;;;;;;;;;;;19.24;62.80;99944.41;7387652;19;1558;-35
2024/02/13 05:33:06;;;;;;;;;;;;;;;19.28;62.33;99951.16;7338012;19;13804;-33
2024/02/13 05:35:38;;;;;;;;;;;;;;;19.30;62.76;99951.84;7389341;19;1376;-34
2024/02/13 05:38:06;;;;;;;;;;;;;;;19.30;62.37;99942.94;7386184;19;1451;-35
2024/02/13 05:40:36;;;;;;;;;;;;;;;19.27;62.54;99934.19;7387282;19;1402;-35
2024/02/13 05:43:05;;;;;;;;;;;;;;;19.30;62.52;99937.56;7382779;19;1861;-34
2024/02/13 05:45:33;;;;;;;;;;;;;;;19.17;61.67;99954.06;7384989;19;1234;-35
2024/02/13 05:48:01;;;;;;;;;;;;;;;19.21;61.84;99948.22;7369557;19;1469;-33
2024/02/13 05:50:30;;;;;;;;;;;;;;;19.19;62.06;99954.75;7368404;19;1262;-35
2024/02/13 05:53:01;;;;;;;;;;;;;;;19.15;62.33;99953.38;7383520;19;1423;-34
2024/02/13 05:55:29;;;;;;;;;;;;;;;19.13;61.55;99966.09;7382519;19;1317;-32
2024/02/13 05:57:58;;;;;;;;;;;;;;;19.06;61.04;99958.69;7381004;19;1596;-33
2024/02/13 06:00:27;;;;;;;;;;;;;;;19.02;60.72;99938.56;7379737;19;2335;-35
2024/02/13 06:02:56;;;;;;;;;;;;;;;18.97;60.09;99927.47;7381902;19;1854;-35
2024/02/13 06:05:24;;;;;;;;;;;;;;;19.03;59.62;99937.56;7380827;19;1347;-32
2024/02/13 06:07:52;;;;;;;;;;;;;;;19.03;59.16;99948.28;7381919;19;1857;-35
2024/02/13 06:10:24;;;;;;;;;;;;;;;19.01;58.79;99950.25;7383793;19;1538;-36
2024/02/13 06:12:53;;;;;;;;;;;;;;;19.00;58.33;99943.25;7381223;19;1696;-35
2024/02/13 06:15:21;;;;;;;;;;;;;;;19.02;57.68;99957.31;7386442;19;1505;-35
2024/02/13 06:17:49;;;;;;;;;;;;;;;18.96;57.76;99947.22;7384564;19;1791;-34
2024/02/13 06:20:18;;;;;;;;;;;;;;;18.96;57.63;99941.88;7381621;19;1381;-35
2024/02/13 06:22:47;;;;;;;;;;;;;;;18.96;57.18;99946.38;7383934;19;1860;-34
2024/02/13 06:25:15;;;;;;;;;;;;;;;18.99;56.94;99930.00;7384635;19;1753;-35
2024/02/13 06:27:46;;;;;;;;;;;;;;;19.00;56.79;99945.91;7384394;19;1764;-35
2024/02/13 06:30:15;;;;;;;;;;;;;;;19.01;56.53;99958.31;7384277;19;1536;-35
2024/02/13 06:32:43;;;;;;;;;;;;;;;19.01;56.44;99947.59;7383738;19;1492;-34
2024/02/13 06:35:12;;;;;;;;;;;;;;;19.05;56.04;99950.81;7382246;19;1957;-33
2024/02/13 06:37:41;;;;;;;;;;;;;;;19.09;55.76;99946.81;7384365;19;1502;-33
2024/02/13 06:40:10;;;;;;;;;;;;;;;19.07;55.71;99946.97;7380593;19;1854;-35
2024/02/13 06:42:38;;;;;;;;;;;;;;;19.00;55.93;99943.25;7383130;19;1624;-34
2024/02/13 06:45:10;;;;;;;;;;;;;;;18.99;55.67;99952.25;7382670;19;1839;-33
2024/02/13 06:47:38;;;;;;;;;;;;;;;19.08;55.27;99940.63;7369820;19;1228;-33
2024/02/13 06:50:11;;;;;;;;;;;;;;;19.16;55.16;99966.63;7384009;19;1496;-33
2024/02/13 06:52:39;;;;;;;;;;;;;;;19.18;54.72;99943.22;7384669;19;1844;-34
2024/02/13 06:55:09;;;;;;;;;;;;;;;19.22;54.63;99952.63;7383741;19;1818;-34
2024/02/13 06:57:37;;;;;;;;;;;;;;;18.95;54.60;99945.53;7382351;19;1474;-35
2024/02/13 07:00:07;;;;;;;;;;;;;;;19.24;54.46;99933.69;7379780;19;1476;-36
2024/02/13 07:02:38;;;;;;;;;;;;;;;19.28;54.29;99951.16;7382018;19;1489;-36
2024/02/13 07:05:08;;;;;;;;;;;;;;;19.23;54.38;99950.75;7381265;19;1887;-40
2024/02/13 07:07:37;;;;;;;;;;;;;;;19.37;54.07;99955.53;7383508;19;1402;-36
2024/02/13 07:10:06;;;;;;;;;;;;;;;19.61;53.83;99962.91;7380836;19;1375;-41
2024/02/13 07:12:34;;;;;;;;;;;;;;;19.79;53.80;99952.13;7381132;19;1592;-39
2024/02/13 07:15:03;;;;;;;;;;;;;;;19.89;53.77;99948.47;7383667;19;1421;-34
2024/02/13 07:17:32;;;;;;;;;;;;;;;19.96;54.06;99954.91;7389919;19;1496;-32
2024/02/13 07:20:03;;;;;;;;;;;;;;;20.03;54.00;99947.88;7389682;19;1697;-34
2024/02/13 07:22:31;;;;;;;;;;;;;;;20.05;54.01;99941.34;7387497;19;1504;-34
2024/02/13 07:25:00;;;;;;;;;;;;;;;20.09;54.12;99947.22;7388885;19;1853;-34
2024/02/13 07:27:29;;;;;;;;;;;;;;;20.09;54.46;99949.91;7388336;19;1731;-35
2024/02/13 07:29:58;;;;;;;;;;;;;;;19.76;55.00;99949.78;7390412;19;1274;-34
2024/02/13 07:32:27;;;;;;;;;;;;;;;19.37;56.27;99946.66;7388717;19;1450;-34
2024/02/13 07:34:57;;;;;;;;;;;;;;;19.12;56.90;99959.03;7388370;19;1232;-34
2024/02/13 07:37:28;;;;;;;;;;;;;;;18.91;57.68;99960.22;7390763;19;1644;-35
2024/02/13 07:39:56;;;;;;;;;;;;;;;18.75;58.14;99968.09;7390005;19;1322;-34
2024/02/13 07:42:27;;;;;;;;;;;;;;;18.64;58.52;99958.44;7387588;19;1570;-33
2024/02/13 07:44:56;;;;;;;;;;;;;;;18.74;58.34;99969.94;7388075;19;1865;-40
2024/02/13 07:47:25;;;;;;;;;;;;;;;19.23;57.24;99964.16;7374959;19;1393;-40
2024/02/13 07:49:54;;;;;;;;;;;;;;;19.64;56.36;99961.75;7391091;19;1265;-35
2024/02/13 07:52:22;;;;;;;;;;;;;;;19.83;56.01;99963.38;7386303;19;1833;-35
2024/02/13 07:54:53;;;;;;;;;;;;;;;19.57;56.61;99958.84;7389468;19;1572;-36
2024/02/13 07:57:22;;;;;;;;;;;;;;;19.29;57.53;99966.22;7390420;19;1444;-40
2024/02/13 07:59:55;;;;;;;;;;;;;;;19.14;57.81;99979.34;7386024;19;1205;-40
2024/02/13 08:02:25;;;;;;;;;;;;;;;19.00;58.35;99972.72;7388156;19;1518;-40
2024/02/13 08:04:53;;;;;;;;;;;;;;;18.92;58.50;99966.44;7386947;19;1857;-41
2024/02/13 08:07:24;;;;;;;;;;;;;;;18.83;58.79;100008.38;7387279;19;1671;-40
2024/02/13 08:09:55;;;;;;;;;;;;;;;19.16;58.15;99965.78;7387682;19;1489;-40
2024/02/13 08:12:24;;;;;;;;;;;;;;;19.69;56.98;99964.78;7388678;19;1571;-45
2024/02/13 08:14:52;;;;;;;;;;;;;;;19.89;56.39;99962.72;7388520;19;1018;-36
2024/02/13 08:17:20;;;;;;;;;;;;;;;19.62;57.13;99963.75;7386845;19;1477;-40
2024/02/13 08:19:49;;;;;;;;;;;;;;;19.34;57.79;99966.59;7387956;19;1587;-39
2024/02/13 08:22:18;;;;;;;;;;;;;;;19.20;58.28;99989.44;7387901;19;1573;-40
2024/02/13 08:24:47;;;;;;;;;;;;;;;19.08;58.59;99994.22;7386505;19;1830;-39
2024/02/13 08:27:18;;;;;;;;;;;;;;;18.93;58.88;99974.31;7387707;19;1636;-43
2024/02/13 08:29:46;;;;;;;;;;;;;;;18.85;59.21;99982.28;7386793;19;1618;-40
2024/02/13 08:32:14;;;;;;;;;;;;;;;19.12;58.56;99980.50;7387591;19;1422;-34
2024/02/13 08:34:44;;;;;;;;;;;;;;;19.28;57.30;99967.22;7388002;19;1768;-39
2024/02/13 08:37:13;;;;;;;;;;;;;;;19.67;56.16;99969.47;7387985;19;1485;-39
2024/02/13 08:39:42;;;;;;;;;;;;;;;19.59;56.31;99996.25;7387242;19;1418;-33
2024/02/13 08:42:10;;;;;;;;;;;;;;;19.29;57.03;99979.63;7387695;19;1339;-34
2024/02/13 08:44:42;;;;;;;;;;;;;;;19.07;57.60;99984.47;7383724;19;1864;-34
2024/02/13 08:47:11;;;;;;;;;;;;;;;18.92;58.11;99991.41;7382770;19;1563;-35
2024/02/13 08:49:40;;;;;;;;;;;;;;;18.84;58.64;99996.66;7380599;19;1583;-35
2024/02/13 08:52:10;;;;;;;;;;;;;;;18.85;59.32;99998.34;7390439;19;1391;-34
2024/02/13 08:54:38;;;;;;;;;;;;;;;19.25;58.12;99984.44;7391531;19;1450;-34
2024/02/13 08:57:07;;;;;;;;;;;;;;;19.82;57.65;99981.31;7390874;19;1390;-34
2024/02/13 08:59:35;;;;;;;;;;;;;;;19.55;58.33;99978.78;7390527;19;1464;-34
2024/02/13 09:02:08;;;;;;;;;;;;;;;19.18;59.40;99990.59;7391718;19;1077;-33
2024/02/13 09:04:37;;;;;;;;;;;;;;;18.91;59.94;99989.69;7391019;19;1861;-34
2024/02/13 09:07:05;;;;;;;;;;;;;;;18.78;58.66;99974.00;7387897;19;1565;-34
2024/02/13 09:09:34;;;;;;;;;;;;;;;18.89;59.31;99999.72;7388111;19;1810;-32
2024/02/13 09:12:03;;;;;;;;;;;;;;;19.25;58.57;99988.97;7391093;19;1108;-34
2024/02/13 09:14:31;;;;;;;;;;;;;;;19.28;58.08;99994.03;7390622;19;1901;-33
2024/02/13 09:16:59;;;;;;;;;;;;;;;19.15;58.11;99998.94;7379534;19;1465;-33
2024/02/13 09:19:31;;;;;;;;;;;;;;;19.01;58.88;100003.84;7386899;19;1328;-34
2024/02/13 09:21:59;;;;;;;;;;;;;;;18.76;59.14;99988.53;7384157;19;1555;-32
2024/02/13 09:24:27;;;;;;;;;;;;;;;18.65;59.46;100003.81;7382740;19;1842;-34
2024/02/13 09:26:56;;;;;;;;;;;;;;;18.65;59.41;99998.47;7389620;19;1478;-33
2024/02/13 09:29:25;;;;;;;;;;;;;;;18.93;59.00;99994.91;7390690;19;1874;-35
2024/02/13 09:31:54;;;;;;;;;;;;;;;19.15;58.65;99974.84;7390572;19;1742;-33
2024/02/13 09:34:22;;;;;;;;;;;;;;;19.02;58.97;99986.78;7389783;19;1771;-35
2024/02/13 09:36:53;;;;;;;;;;;;;;;18.95;58.99;99987.56;7388745;19;1398;-34
2024/02/13 09:39:22;;;;;;;;;;;;;;;18.82;59.34;99996.84;7387317;19;1563;-34
2024/02/13 09:41:51;;;;;;;;;;;;;;;18.65;59.41;99987.75;7389277;19;1496;-35
2024/02/13 09:44:20;;;;;;;;;;;;;;;18.87;59.05;99999.03;7386804;19;1875;-34
2024/02/13 09:46:48;;;;;;;;;;;;;;;19.13;58.38;99990.22;7388179;19;1411;-35
2024/02/13 09:49:17;;;;;;;;;;;;;;;19.05;58.69;99989.16;7374692;19;1533;-35
2024/02/13 09:51:47;;;;;;;;;;;;;;;18.95;59.46;99990.25;7388152;19;1371;-35
2024/02/13 09:54:18;;;;;;;;;;;;;;;18.80;60.71;99979.22;7388179;19;1315;-34
2024/02/13 09:56:50;;;;;;;;;;;;;;;18.71;61.50;99969.41;7388530;19;1464;-34
2024/02/13 09:59:19;;;;;;;;;;;;;;;18.90;61.36;99969.28;7387471;19;1620;-35
2024/02/13 10:01:49;;;;;;;;;;;;;;;19.04;60.37;99931.22;7386513;19;1460;-35
2024/02/13 10:04:18;;;;;;;;;;;;;;;19.39;60.23;99958.91;7389420;19;1853;-34
2024/02/13 10:06:47;;;;;;;;;;;;;;;19.14;60.53;99975.81;7387878;19;1416;-34
2024/02/13 10:09:18;;;;;;;;;;;;;;;18.93;61.18;99963.59;7389047;19;1502;-34
2024/02/13 10:11:48;;;;;;;;;;;;;;;18.80;61.59;99973.84;7389710;19;1402;-34
2024/02/13 10:14:21;;;;;;;;;;;;;;;18.64;61.73;99967.34;7388017;19;1572;-34
2024/02/13 10:16:50;;;;;;;;;;;;;;;18.90;60.82;99963.06;7388350;19;1483;-34
2024/02/13 10:19:20;;;;;;;;;;;;;;;19.19;60.18;99973.53;7387248;19;1381;-34
2024/02/13 10:21:49;;;;;;;;;;;;;;;19.15;60.03;99961.44;7389166;19;1437;-39
2024/02/13 10:24:23;;;;;;;;;;;;;;;18.94;60.75;99959.06;7386555;19;1884;-34
2024/02/13 10:26:52;;;;;;;;;;;;;;;18.77;60.95;99968.78;7386686;19;1642;-35
2024/02/13 10:29:23;;;;;;;;;;;;;;;18.71;61.31;99962.19;7385511;19;1615;-33
2024/02/13 10:31:52;;;;;;;;;;;;;;;18.92;60.80;99953.91;7386817;19;1433;-34
2024/02/13 10:34:22;;;;;;;;;;;;;;;19.21;60.23;99956.28;7387508;19;1546;-33
2024/02/13 10:36:51;;;;;;;;;;;;;;;19.30;60.37;99969.72;7388433;19;1485;-34
2024/02/13 10:39:25;;;;;;;;;;;;;;;19.15;60.40;99972.16;7387382;19;1803;-33
2024/02/13 10:41:54;;;;;;;;;;;;;;;18.96;61.36;99963.31;7384350;19;1596;-34
2024/02/13 10:44:25;;;;;;;;;;;;;;;18.84;61.69;99961.84;7384810;19;1924;-34
2024/02/13 10:46:56;;;;;;;;;;;;;;;18.70;62.11;99960.50;7384385;19;1277;-35
2024/02/13 10:49:27;;;;;;;;;;;;;;;18.87;61.47;99961.53;7365927;19;1501;-35
2024/02/13 10:51:56;;;;;;;;;;;;;;;19.44;60.12;99951.25;7381616;19;1644;-37
2024/02/13 10:54:28;;;;;;;;;;;;;;;19.91;58.81;99962.56;7382636;19;1657;-35
2024/02/13 10:56:57;;;;;;;;;;;;;;;19.98;58.79;99948.34;7385729;19;1315;-35
2024/02/13 10:59:28;;;;;;;;;;;;;;;20.12;58.23;99949.59;7383507;19;1417;-36
2024/02/13 11:01:58;;;;;;;;;;;;;;;20.15;58.24;99954.59;7382811;19;1760;-36
2024/02/13 11:04:27;;;;;;;;;;;;;;;20.13;58.31;99961.16;7382762;19;1856;-36
2024/02/13 11:06:56;;;;;;;;;;;;;;;20.09;58.27;99946.38;7384546;19;1362;-35
2024/02/13 11:09:25;;;;;;;;;;;;;;;20.10;58.31;99961.50;7385227;19;1806;-35
2024/02/13 11:11:55;;;;;;;;;;;;;;;20.10;58.31;99956.13;7386440;19;997;-35
2024/02/13 11:14:25;;;;;;;;;;;;;;;20.12;58.12;99962.16;7386621;19;1921;-35
2024/02/13 11:16:54;;;;;;;;;;;;;;;20.12;58.19;99951.44;7386887;19;1604;-35
2024/02/13 11:19:23;;;;;;;;;;;;;;;20.09;58.31;99952.59;7386311;19;1385;-35
2024/02/13 11:21:53;;;;;;;;;;;;;;;20.11;58.15;99955.09;7387398;19;1278;-35
2024/02/13 11:24:22;;;;;;;;;;;;;;;20.11;58.24;99950.56;7386003;19;1933;-35
2024/02/13 11:26:51;;;;;;;;;;;;;;;20.11;58.25;99952.41;7385068;19;1845;-35
2024/02/13 11:29:23;;;;;;;;;;;;;;;20.12;58.22;99957.63;7386983;19;1929;-35
2024/02/13 11:31:58;;;;;;;;;;;;;;;20.15;58.09;99959.16;7386956;19;1505;-35
2024/02/13 11:34:40;;;;;;;;;;;;;;;20.14;58.21;99961.00;7386659;19;1862;-35
2024/02/13 11:37:16;;;;;;;;;;;;;;;20.15;58.16;99943.88;7386846;19;1509;-36
2024/02/13 11:39:44;;;;;;;;;;;;;;;20.18;57.97;99951.63;7386736;19;1948;-37
2024/02/13 11:42:17;;;;;;;;;;;;;;;20.20;57.95;99957.66;7388149;19;1013;-35
2024/02/13 11:44:49;;;;;;;;;;;;;;;20.21;57.76;99945.94;7387244;19;1849;-35
2024/02/13 11:47:18;;;;;;;;;;;;;;;20.22;57.99;99939.53;7387156;19;1842;-35
2024/02/13 11:49:49;;;;;;;;;;;;;;;20.26;57.80;99948.94;7371866;19;1773;-35
2024/02/13 11:52:17;;;;;;;;;;;;;;;20.34;57.65;99952.66;7386958;19;1714;-46
2024/02/13 11:54:46;;;;;;;;;;;;;;;20.30;57.68;99945.94;7386149;19;1465;-35
2024/02/13 11:57:15;;;;;;;;;;;;;;;20.34;57.66;99974.16;7385936;19;1688;-35
2024/02/13 11:59:43;;;;;;;;;;;;;;;20.31;57.51;99950.31;7386518;19;1846;-35
2024/02/13 12:02:15;;;;;;;;;;;;;;;20.35;57.70;99962.41;7386080;19;1338;-36
2024/02/13 12:04:44;;;;;;;;;;;;;;;20.41;57.56;99959.91;7392475;19;1860;-35
2024/02/13 12:07:13;;;;;;;;;;;;;;;20.32;57.53;99944.78;7392320;19;1378;-36
2024/02/13 12:09:44;;;;;;;;;;;;;;;20.35;57.55;99954.34;7391508;19;1810;-35
2024/02/13 12:12:13;;;;;;;;;;;;;;;20.35;57.67;99965.06;7394071;19;1120;-35
2024/02/13 12:14:43;;;;;;;;;;;;;;;20.31;57.67;99969.09;7393085;19;1259;-35
2024/02/13 12:17:12;;;;;;;;;;;;;;;20.36;57.75;99977.50;7390637;19;1924;-35
2024/02/13 12:19:44;;;;;;;;;;;;;;;20.35;57.77;99970.44;7392556;19;1236;-35
2024/02/13 12:22:16;;;;;;;;;;;;;;;20.03;57.68;99910.28;7392800;19;1740;-35
2024/02/13 12:24:45;;;;;;;;;;;;;;;20.32;57.74;99960.06;7391587;19;1514;-35
2024/02/13 12:27:15;;;;;;;;;;;;;;;20.36;57.52;99961.41;7390075;19;1846;-40
2024/02/13 12:29:43;;;;;;;;;;;;;;;20.35;57.51;99975.81;7392334;19;1318;-36
2024/02/13 12:32:16;;;;;;;;;;;;;;;20.33;57.72;99967.09;7393277;19;1114;-35
2024/02/13 12:34:48;;;;;;;;;;;;;;;20.23;57.67;99956.47;7392546;19;1533;-35
2024/02/13 12:37:17;;;;;;;;;;;;;;;20.29;57.60;99977.31;7393051;19;1845;-35
2024/02/13 12:39:45;;;;;;;;;;;;;;;20.29;57.74;99981.84;7391781;19;1858;-35
2024/02/13 12:42:16;;;;;;;;;;;;;;;20.29;57.78;99976.47;7388125;19;923;-35
2024/02/13 12:44:47;;;;;;;;;;;;;;;20.25;58.00;99984.00;7392200;19;1090;-36
2024/02/13 12:47:17;;;;;;;;;;;;;;;20.24;57.90;99972.44;7389749;19;1927;-39
2024/02/13 12:49:48;;;;;;;;;;;;;;;20.27;57.63;99980.19;7376416;19;1516;-36
2024/02/13 12:52:19;;;;;;;;;;;;;;;20.30;57.81;99975.47;7391098;19;1438;-36
2024/02/13 12:54:49;;;;;;;;;;;;;;;20.28;57.75;99986.38;7389789;19;1355;-35
2024/02/13 12:57:18;;;;;;;;;;;;;;;20.29;57.73;99990.72;7391497;19;1735;-39
2024/02/13 12:59:47;;;;;;;;;;;;;;;20.31;57.65;99983.34;7391585;19;1754;-36
2024/02/13 13:02:21;;;;;;;;;;;;;;;20.34;57.58;99995.63;7390721;19;1403;-35
2024/02/13 13:04:52;;;;;;;;;;;;;;;20.36;57.48;99999.81;7389855;19;1805;-36
2024/02/13 13:07:20;;;;;;;;;;;;;;;20.35;57.44;99991.94;7387877;19;1846;-35
2024/02/13 13:09:49;;;;;;;;;;;;;;;20.34;57.48;99996.47;7388660;19;1402;-36
2024/02/13 13:12:18;;;;;;;;;;;;;;;20.37;57.29;99996.16;7391540;19;1645;-37